Cathedral City, CA (92234)

3:46 PM PST on February 14, 2016 (GMT -0800)
Cat City TA | | Change Station
CLOSE
Current Station
Personal Weather Station
Location: Cathedral City, CA
Elevation: 384 ft
Nearby Weather Stations

Elev 384 ft 33.83 °N, 116.47 °W | Updated 1 minute ago

Mostly Cloudy
Mostly Cloudy
86.5 °F
Feels Like 83 °F
N
6.5
Wind Variable Wind from NNW
Gusts 9.8 mph

Today
High -- | Low -- °F
--% Chance of Precip.
Yesterday
High -- | Low -- °F
Precip. -- in
Pressure 29.98 in
Visibility 10.0 miles
Clouds Mostly Cloudy 20000 ft
Heat Index 83 °F
Dew Point 24 °F
Humidity 10%
Rainfall 0.00 in
Snow Depth Not available.
6:31 AM 5:28 PM
Waxing Crescent, 46% visible
METAR KPSP 142253Z 02012KT 10SM BKN200 32/M09 A2999 RMK AO2 SLP152 T03171089
Pressure 29.98 in
Visibility 10.0 miles
Clouds Mostly Cloudy 20000 ft
Heat Index 83 °F
Dew Point 24 °F
Humidity 10%
Rainfall 0.00 in
Snow Depth Not available.
6:31 AM 5:28 PM
Waxing Crescent, 46% visible
METAR KPSP 142253Z 02012KT 10SM BKN200 32/M09 A2999 RMK AO2 SLP152 T03171089

10-Day Weather Forecast

Almanac

Astronomy

Feb. 14, 2016 Rise Set
Actual Time
Civil Twilight
Nautical Twilight
Astronomical Twilight
Moon
Length of Visible Light
Length of Day
Tomorrow will be .
, % of the Moon is Illuminated

Today's Extremes

State Highs State Lows

Community

WunderPhotos

Upload Photos

1,892,929 photos uploaded!

WunderBlog® & News

Nearby

Air Quality

  Air Quality AQ Index Pollutant
Not available.

Snow Depth

Station Depth Elevation

Earthquake Activity

City Distance Mag. Time & Date
Minimum magnitude displayed is 2.5.

Coastal Water Temperatures

Place Temperature

Stations

Nearby Weather Stations

Station Location Temp. Windchill Dew Point Humidity Wind Precip. Elev Updated Type
                   

Watches & Warnings

There are currently no watches in effect.